sensor_id;sensor_type;location;lat;lon;timestamp;pressure;altitude;pressure_sealevel;temperature;humidity
51123;BME280;37162;41.724;13.346;2023-05-23T00:00:34;96538.25;;;17.51;80.08
51123;BME280;37162;41.724;13.346;2023-05-23T00:03:01;96534.78;;;17.50;80.13
51123;BME280;37162;41.724;13.346;2023-05-23T00:05:27;96543.63;;;17.51;80.01
51123;BME280;37162;41.724;13.346;2023-05-23T00:07:53;96542.81;;;17.50;80.13
51123;BME280;37162;41.724;13.346;2023-05-23T00:10:19;96537.47;;;17.50;80.08
51123;BME280;37162;41.724;13.346;2023-05-23T00:12:44;96530.94;;;17.46;80.01
51123;BME280;37162;41.724;13.346;2023-05-23T00:15:12;96540.13;;;17.50;79.99
51123;BME280;37162;41.724;13.346;2023-05-23T00:17:38;96533.38;;;17.48;79.95
51123;BME280;37162;41.724;13.346;2023-05-23T00:20:05;96540.13;;;17.50;79.87
51123;BME280;37162;41.724;13.346;2023-05-23T00:22:34;96533.13;;;17.49;79.69
51123;BME280;37162;41.724;13.346;2023-05-23T00:25:00;96533.94;;;17.50;79.96
51123;BME280;37162;41.724;13.346;2023-05-23T00:27:26;96527.19;;;17.47;80.12
51123;BME280;37162;41.724;13.346;2023-05-23T00:29:51;96529.41;;;17.50;79.76
51123;BME280;37162;41.724;13.346;2023-05-23T00:32:17;96528.56;;;17.50;79.94
51123;BME280;37162;41.724;13.346;2023-05-23T00:34:42;96517.81;;;17.50;79.84
51123;BME280;37162;41.724;13.346;2023-05-23T00:37:09;96519.47;;;17.51;79.88
51123;BME280;37162;41.724;13.346;2023-05-23T00:39:35;96525.66;;;17.51;80.08
51123;BME280;37162;41.724;13.346;2023-05-23T00:42:03;96523.78;;;17.52;79.80
51123;BME280;37162;41.724;13.346;2023-05-23T00:44:29;96521.91;;;17.52;80.20
51123;BME280;37162;41.724;13.346;2023-05-23T00:46:55;96507.22;;;17.43;79.92
51123;BME280;37162;41.724;13.346;2023-05-23T00:49:22;96522.16;;;17.51;80.05
51123;BME280;37162;41.724;13.346;2023-05-23T00:51:48;96515.38;;;17.48;80.16
51123;BME280;37162;41.724;13.346;2023-05-23T00:54:17;96524.03;;;17.50;80.01
51123;BME280;37162;41.724;13.346;2023-05-23T00:56:45;96509.66;;;17.45;80.13
51123;BME280;37162;41.724;13.346;2023-05-23T00:59:11;96513.50;;;17.49;80.16
51123;BME280;37162;41.724;13.346;2023-05-23T01:01:38;96512.69;;;17.48;80.10
51123;BME280;37162;41.724;13.346;2023-05-23T01:04:04;96512.69;;;17.48;79.97
51123;BME280;37162;41.724;13.346;2023-05-23T01:06:30;96511.88;;;17.48;79.88
51123;BME280;37162;41.724;13.346;2023-05-23T01:08:57;96511.63;;;17.49;79.82
51123;BME280;37162;41.724;13.346;2023-05-23T01:11:34;96509.44;;;17.46;79.92
51123;BME280;37162;41.724;13.346;2023-05-23T01:14:12;96523.69;;;17.47;79.86
51123;BME280;37162;41.724;13.346;2023-05-23T01:16:49;96504.06;;;17.46;79.82
51123;BME280;37162;41.724;13.346;2023-05-23T01:19:47;96505.09;;;17.45;79.89
51123;BME280;37162;41.724;13.346;2023-05-23T01:22:26;96504.28;;;17.45;79.97
51123;BME280;37162;41.724;13.346;2023-05-23T01:25:09;96505.09;;;17.45;79.80
51123;BME280;37162;41.724;13.346;2023-05-23T01:27:56;96504.28;;;17.45;79.61
51123;BME280;37162;41.724;13.346;2023-05-23T01:30:24;96490.69;;;17.34;79.74
51123;BME280;37162;41.724;13.346;2023-05-23T01:32:53;96506.97;;;17.45;79.70
51123;BME280;37162;41.724;13.346;2023-05-23T01:35:24;96499.19;;;17.43;79.86
51123;BME280;37162;41.724;13.346;2023-05-23T01:37:56;96498.63;;;17.41;79.90
51123;BME280;37162;41.724;13.346;2023-05-23T01:40:22;96506.97;;;17.45;79.75
51123;BME280;37162;41.724;13.346;2023-05-23T01:42:48;96504.28;;;17.45;79.97
51123;BME280;37162;41.724;13.346;2023-05-23T01:45:15;96506.97;;;17.45;79.99
51123;BME280;37162;41.724;13.346;2023-05-23T01:47:40;96503.25;;;17.46;80.15
51123;BME280;37162;41.724;13.346;2023-05-23T01:50:08;96496.03;;;17.46;80.19
51123;BME280;37162;41.724;13.346;2023-05-23T01:52:35;96506.75;;;17.46;80.00
51123;BME280;37162;41.724;13.346;2023-05-23T01:55:03;96497.91;;;17.46;80.30
51123;BME280;37162;41.724;13.346;2023-05-23T01:57:35;96495.22;;;17.46;80.12
51123;BME280;37162;41.724;13.346;2023-05-23T02:00:01;96492.41;;;17.41;80.29
51123;BME280;37162;41.724;13.346;2023-05-23T02:02:26;96490.88;;;17.45;80.40
51123;BME280;37162;41.724;13.346;2023-05-23T02:04:52;96496.25;;;17.45;80.43
51123;BME280;37162;41.724;13.346;2023-05-23T02:07:18;96495.44;;;17.44;80.40
51123;BME280;37162;41.724;13.346;2023-05-23T02:09:47;96487.38;;;17.44;80.27
51123;BME280;37162;41.724;13.346;2023-05-23T02:12:13;96484.69;;;17.44;80.41
51123;BME280;37162;41.724;13.346;2023-05-23T02:14:38;96486.56;;;17.44;80.56
51123;BME280;37162;41.724;13.346;2023-05-23T02:17:04;96483.88;;;17.44;80.52
51123;BME280;37162;41.724;13.346;2023-05-23T02:19:29;96483.06;;;17.43;80.33
51123;BME280;37162;41.724;13.346;2023-05-23T02:21:55;96484.69;;;17.44;80.18
51123;BME280;37162;41.724;13.346;2023-05-23T02:24:20;96484.69;;;17.44;80.40
51123;BME280;37162;41.724;13.346;2023-05-23T02:26:45;96479.31;;;17.44;80.51
51123;BME280;37162;41.724;13.346;2023-05-23T02:29:11;96489.84;;;17.46;80.50
51123;BME280;37162;41.724;13.346;2023-05-23T02:31:36;96489.00;;;17.45;80.34
51123;BME280;37162;41.724;13.346;2023-05-23T02:34:02;96484.69;;;17.44;80.51
51123;BME280;37162;41.724;13.346;2023-05-23T02:36:27;96483.63;;;17.45;80.37
51123;BME280;37162;41.724;13.346;2023-05-23T02:38:53;96489.00;;;17.45;80.28
51123;BME280;37162;41.724;13.346;2023-05-23T02:41:18;96476.41;;;17.46;80.28
51123;BME280;37162;41.724;13.346;2023-05-23T02:43:45;96469.88;;;17.42;80.47
51123;BME280;37162;41.724;13.346;2023-05-23T02:46:11;96478.25;;;17.45;80.43
51123;BME280;37162;41.724;13.346;2023-05-23T02:48:37;96478.25;;;17.45;80.16
51123;BME280;37162;41.724;13.346;2023-05-23T02:51:03;96476.41;;;17.46;80.02
51123;BME280;37162;41.724;13.346;2023-05-23T02:53:28;96474.75;;;17.45;80.07
51123;BME280;37162;41.724;13.346;2023-05-23T02:55:54;96482.81;;;17.45;79.95
51123;BME280;37162;41.724;13.346;2023-05-23T02:58:19;96483.63;;;17.45;80.09
51123;BME280;37162;41.724;13.346;2023-05-23T03:00:44;96479.31;;;17.44;80.15
51123;BME280;37162;41.724;13.346;2023-05-23T03:03:10;96483.63;;;17.45;80.07
51123;BME280;37162;41.724;13.346;2023-05-23T03:05:36;96482.81;;;17.45;80.06
51123;BME280;37162;41.724;13.346;2023-05-23T03:08:01;96480.94;;;17.45;79.83
51123;BME280;37162;41.724;13.346;2023-05-23T03:10:27;96482.81;;;17.45;79.94
51123;BME280;37162;41.724;13.346;2023-05-23T03:12:52;96477.44;;;17.45;79.68
51123;BME280;37162;41.724;13.346;2023-05-23T03:15:18;96485.50;;;17.45;79.75
51123;BME280;37162;41.724;13.346;2023-05-23T03:17:44;96485.50;;;17.45;79.90
51123;BME280;37162;41.724;13.346;2023-05-23T03:20:09;96482.00;;;17.44;79.80
51123;BME280;37162;41.724;13.346;2023-05-23T03:22:35;96489.84;;;17.46;80.03
51123;BME280;37162;41.724;13.346;2023-05-23T03:25:01;96489.00;;;17.45;79.93
51123;BME280;37162;41.724;13.346;2023-05-23T03:27:27;96483.31;;;17.42;80.25
51123;BME280;37162;41.724;13.346;2023-05-23T03:29:52;96493.34;;;17.46;80.20
51123;BME280;37162;41.724;13.346;2023-05-23T03:32:18;96500.56;;;17.46;80.17
51123;BME280;37162;41.724;13.346;2023-05-23T03:34:43;96491.69;;;17.45;80.03
51123;BME280;37162;41.724;13.346;2023-05-23T03:37:09;96464.00;;;17.28;80.33
51123;BME280;37162;41.724;13.346;2023-05-23T03:39:35;96498.94;;;17.45;80.22
51123;BME280;37162;41.724;13.346;2023-05-23T03:42:00;96495.22;;;17.46;80.04
51123;BME280;37162;41.724;13.346;2023-05-23T03:44:26;96496.25;;;17.45;80.11
51123;BME280;37162;41.724;13.346;2023-05-23T03:46:51;96491.69;;;17.45;79.93
51123;BME280;37162;41.724;13.346;2023-05-23T03:49:17;96490.78;;;17.40;80.03
51123;BME280;37162;41.724;13.346;2023-05-23T03:51:42;96505.94;;;17.46;80.04
51123;BME280;37162;41.724;13.346;2023-05-23T03:54:07;96501.59;;;17.45;79.99
51123;BME280;37162;41.724;13.346;2023-05-23T03:56:33;96506.16;;;17.44;79.92
51123;BME280;37162;41.724;13.346;2023-05-23T03:58:58;96506.16;;;17.44;79.82
51123;BME280;37162;41.724;13.346;2023-05-23T04:01:24;96496.25;;;17.45;79.75
51123;BME280;37162;41.724;13.346;2023-05-23T04:03:49;96499.19;;;17.43;79.59
51123;BME280;37162;41.724;13.346;2023-05-23T04:06:15;96498.63;;;17.41;79.76
51123;BME280;37162;41.724;13.346;2023-05-23T04:08:41;96502.69;;;17.44;79.81
51123;BME280;37162;41.724;13.346;2023-05-23T04:11:07;96503.75;;;17.43;79.85
51123;BME280;37162;41.724;13.346;2023-05-23T04:13:33;96503.75;;;17.43;79.57
51123;BME280;37162;41.724;13.346;2023-05-23T04:16:01;96504.56;;;17.43;79.54
51123;BME280;37162;41.724;13.346;2023-05-23T04:18:30;96501.06;;;17.43;79.82
51123;BME280;37162;41.724;13.346;2023-05-23T04:20:57;96496.50;;;17.43;79.75
51123;BME280;37162;41.724;13.346;2023-05-23T04:23:23;96494.63;;;17.44;79.87
51123;BME280;37162;41.724;13.346;2023-05-23T04:25:48;96501.06;;;17.43;79.65
51123;BME280;37162;41.724;13.346;2023-05-23T04:28:15;96501.06;;;17.43;79.70
51123;BME280;37162;41.724;13.346;2023-05-23T04:30:42;96501.59;;;17.45;79.73
51123;BME280;37162;41.724;13.346;2023-05-23T04:33:07;96495.69;;;17.43;79.57
51123;BME280;37162;41.724;13.346;2023-05-23T04:35:34;96492.19;;;17.42;79.62
51123;BME280;37162;41.724;13.346;2023-05-23T04:38:03;96493.81;;;17.43;79.78
51123;BME280;37162;41.724;13.346;2023-05-23T04:40:29;96494.06;;;17.42;79.72
51123;BME280;37162;41.724;13.346;2023-05-23T04:42:55;96499.19;;;17.43;79.38
51123;BME280;37162;41.724;13.346;2023-05-23T04:45:21;96501.88;;;17.43;79.57
51123;BME280;37162;41.724;13.346;2023-05-23T04:47:46;96488.91;;;17.40;79.45
51123;BME280;37162;41.724;13.346;2023-05-23T04:50:12;96496.16;;;17.40;79.42
51123;BME280;37162;41.724;13.346;2023-05-23T04:52:39;96497.31;;;17.44;79.54
51123;BME280;37162;41.724;13.346;2023-05-23T04:55:05;96498.94;;;17.45;79.53
51123;BME280;37162;41.724;13.346;2023-05-23T04:57:31;96495.22;;;17.46;79.62
51123;BME280;37162;41.724;13.346;2023-05-23T04:59:56;96489.84;;;17.46;79.47
51123;BME280;37162;41.724;13.346;2023-05-23T05:02:22;96508.63;;;17.46;79.69
51123;BME280;37162;41.724;13.346;2023-05-23T05:04:47;96506.75;;;17.46;79.66
51123;BME280;37162;41.724;13.346;2023-05-23T05:07:13;96508.38;;;17.47;79.64
51123;BME280;37162;41.724;13.346;2023-05-23T05:09:38;96506.50;;;17.48;79.59
51123;BME280;37162;41.724;13.346;2023-05-23T05:12:04;96508.63;;;17.46;79.80
51123;BME280;37162;41.724;13.346;2023-05-23T05:14:29;96514.56;;;17.48;79.61
51123;BME280;37162;41.724;13.346;2023-05-23T05:16:55;96501.06;;;17.43;79.89
51123;BME280;37162;41.724;13.346;2023-05-23T05:19:22;96512.69;;;17.48;79.79
51123;BME280;37162;41.724;13.346;2023-05-23T05:21:48;96513.28;;;17.50;79.90
51123;BME280;37162;41.724;13.346;2023-05-23T05:24:13;96506.03;;;17.51;79.63
51123;BME280;37162;41.724;13.346;2023-05-23T05:26:40;96513.28;;;17.50;79.72
51123;BME280;37162;41.724;13.346;2023-05-23T05:29:05;96522.97;;;17.51;79.63
51123;BME280;37162;41.724;13.346;2023-05-23T05:31:30;96518.41;;;17.52;79.58
51123;BME280;37162;41.724;13.346;2023-05-23T05:33:57;96515.72;;;17.52;79.63
51123;BME280;37162;41.724;13.346;2023-05-23T05:36:22;96521.91;;;17.52;79.66
51123;BME280;37162;41.724;13.346;2023-05-23T05:38:48;96491.50;;;17.35;79.56
51123;BME280;37162;41.724;13.346;2023-05-23T05:41:13;96519.78;;;17.54;79.71
51123;BME280;37162;41.724;13.346;2023-05-23T05:43:38;96513.59;;;17.54;79.63
51123;BME280;37162;41.724;13.346;2023-05-23T05:46:04;96514.41;;;17.54;79.39
51123;BME280;37162;41.724;13.346;2023-05-23T05:48:29;96518.97;;;17.54;79.56
51123;BME280;37162;41.724;13.346;2023-05-23T05:50:55;96510.91;;;17.54;79.21
51123;BME280;37162;41.724;13.346;2023-05-23T05:53:21;96513.38;;;17.55;79.28
51123;BME280;37162;41.724;13.346;2023-05-23T05:55:46;96515.22;;;17.55;79.01
51123;BME280;37162;41.724;13.346;2023-05-23T05:58:11;96510.44;;;17.57;79.05
51123;BME280;37162;41.724;13.346;2023-05-23T06:00:37;96513.13;;;17.57;78.88
51123;BME280;37162;41.724;13.346;2023-05-23T06:03:09;96505.88;;;17.57;79.12
51123;BME280;37162;41.724;13.346;2023-05-23T06:05:34;96519.03;;;17.59;79.15
51123;BME280;37162;41.724;13.346;2023-05-23T06:08:02;96514.75;;;17.58;78.75
51123;BME280;37162;41.724;13.346;2023-05-23T06:10:27;96522.31;;;17.61;78.38
51123;BME280;37162;41.724;13.346;2023-05-23T06:12:54;96516.94;;;17.61;78.84
51123;BME280;37162;41.724;13.346;2023-05-23T06:15:19;96509.44;;;17.63;79.12
51123;BME280;37162;41.724;13.346;2023-05-23T06:17:45;96517.28;;;17.65;79.06
51123;BME280;37162;41.724;13.346;2023-05-23T06:20:11;96511.81;;;17.59;79.08
51123;BME280;37162;41.724;13.346;2023-05-23T06:22:36;96524.28;;;17.66;79.03
51123;BME280;37162;41.724;13.346;2023-05-23T06:25:02;96529.41;;;17.67;78.98
51123;BME280;37162;41.724;13.346;2023-05-23T06:27:27;96521.25;;;17.62;78.98
51123;BME280;37162;41.724;13.346;2023-05-23T06:29:53;96530.22;;;17.68;79.02
51123;BME280;37162;41.724;13.346;2023-05-23T06:32:18;96525.66;;;17.68;78.98
51123;BME280;37162;41.724;13.346;2023-05-23T06:34:44;96527.31;;;17.69;79.16
51123;BME280;37162;41.724;13.346;2023-05-23T06:37:09;96526.72;;;17.67;78.95
51123;BME280;37162;41.724;13.346;2023-05-23T06:39:34;96526.47;;;17.69;79.10
51123;BME280;37162;41.724;13.346;2023-05-23T06:42:00;96526.25;;;17.70;79.20
51123;BME280;37162;41.724;13.346;2023-05-23T06:44:26;96518.09;;;17.65;79.20
51123;BME280;37162;41.724;13.346;2023-05-23T06:46:52;96525.16;;;17.71;78.88
51123;BME280;37162;41.724;13.346;2023-05-23T06:49:22;96519.00;;;17.71;78.99
51123;BME280;37162;41.724;13.346;2023-05-23T06:51:48;96518.75;;;17.72;78.93
51123;BME280;37162;41.724;13.346;2023-05-23T06:54:13;96488.59;;;17.53;78.87
51123;BME280;37162;41.724;13.346;2023-05-23T06:56:39;96524.91;;;17.73;78.93
51123;BME280;37162;41.724;13.346;2023-05-23T06:59:04;96531.97;;;17.74;79.03
51123;BME280;37162;41.724;13.346;2023-05-23T07:01:30;96533.81;;;17.73;78.98
51123;BME280;37162;41.724;13.346;2023-05-23T07:03:55;96531.13;;;17.73;78.94
51123;BME280;37162;41.724;13.346;2023-05-23T07:06:21;96528.94;;;17.70;78.99
51123;BME280;37162;41.724;13.346;2023-05-23T07:08:46;96530.09;;;17.74;79.01
51123;BME280;37162;41.724;13.346;2023-05-23T07:11:11;96537.09;;;17.75;79.03
51123;BME280;37162;41.724;13.346;2023-05-23T07:13:37;96545.16;;;17.75;78.96
51123;BME280;37162;41.724;13.346;2023-05-23T07:16:03;96543.03;;;17.77;78.95
51123;BME280;37162;41.724;13.346;2023-05-23T07:18:28;96540.69;;;17.81;78.97
51123;BME280;37162;41.724;13.346;2023-05-23T07:20:53;96541.81;;;17.85;79.07
51123;BME280;37162;41.724;13.346;2023-05-23T07:23:22;96539.94;;;17.85;78.66
51123;BME280;37162;41.724;13.346;2023-05-23T07:25:48;96538.06;;;17.86;78.83
51123;BME280;37162;41.724;13.346;2023-05-23T07:28:14;96533.19;;;17.83;78.81
51123;BME280;37162;41.724;13.346;2023-05-23T07:30:40;96544.13;;;17.93;78.64
51123;BME280;37162;41.724;13.346;2023-05-23T07:33:06;96533.09;;;17.95;78.57
51123;BME280;37162;41.724;13.346;2023-05-23T07:35:32;96539.31;;;17.95;78.54
51123;BME280;37162;41.724;13.346;2023-05-23T07:37:57;96543.88;;;17.95;78.49
51123;BME280;37162;41.724;13.346;2023-05-23T07:40:22;96536.88;;;17.94;78.66
51123;BME280;37162;41.724;13.346;2023-05-23T07:42:48;96543.31;;;17.93;78.65
51123;BME280;37162;41.724;13.346;2023-05-23T07:45:13;96525.44;;;17.86;78.48
51123;BME280;37162;41.724;13.346;2023-05-23T07:47:39;96539.78;;;17.92;78.45
51123;BME280;37162;41.724;13.346;2023-05-23T07:50:05;96531.41;;;17.88;78.44
51123;BME280;37162;41.724;13.346;2023-05-23T07:52:31;96527.91;;;17.88;78.49
51123;BME280;37162;41.724;13.346;2023-05-23T07:54:58;96529.75;;;17.87;78.56
51123;BME280;37162;41.724;13.346;2023-05-23T07:57:23;96515.69;;;17.80;78.67
51123;BME280;37162;41.724;13.346;2023-05-23T07:59:50;96534.66;;;17.91;78.69
51123;BME280;37162;41.724;13.346;2023-05-23T08:02:16;96532.22;;;17.89;78.60
51123;BME280;37162;41.724;13.346;2023-05-23T08:04:41;96534.66;;;17.91;78.65
51123;BME280;37162;41.724;13.346;2023-05-23T08:07:07;96532.78;;;17.91;78.74
51123;BME280;37162;41.724;13.346;2023-05-23T08:09:34;96518.72;;;17.84;78.54
51123;BME280;37162;41.724;13.346;2023-05-23T08:12:00;96530.09;;;17.91;78.68
51123;BME280;37162;41.724;13.346;2023-05-23T08:14:25;96531.72;;;17.92;78.71
51123;BME280;37162;41.724;13.346;2023-05-23T08:16:51;96538.75;;;17.93;78.58
51123;BME280;37162;41.724;13.346;2023-05-23T08:19:16;96523.91;;;17.91;78.58
51123;BME280;37162;41.724;13.346;2023-05-23T08:21:42;96533.38;;;17.93;78.70
51123;BME280;37162;41.724;13.346;2023-05-23T08:24:08;96538.75;;;17.93;78.70
51123;BME280;37162;41.724;13.346;2023-05-23T08:26:33;96535.81;;;17.95;78.44
51123;BME280;37162;41.724;13.346;2023-05-23T08:29:01;96535.00;;;17.94;78.55
51123;BME280;37162;41.724;13.346;2023-05-23T08:31:30;96532.56;;;17.93;78.39
51123;BME280;37162;41.724;13.346;2023-05-23T08:33:56;96541.97;;;17.95;78.51
51123;BME280;37162;41.724;13.346;2023-05-23T08:36:22;96542.78;;;17.96;78.56
51123;BME280;37162;41.724;13.346;2023-05-23T08:38:48;96546.88;;;17.98;78.39
51123;BME280;37162;41.724;13.346;2023-05-23T08:41:21;96541.50;;;17.98;78.39
51123;BME280;37162;41.724;13.346;2023-05-23T08:43:47;96545.00;;;17.99;78.27
51123;BME280;37162;41.724;13.346;2023-05-23T08:46:16;96543.13;;;17.99;78.32
51123;BME280;37162;41.724;13.346;2023-05-23T08:48:42;96548.25;;;18.01;78.25
51123;BME280;37162;41.724;13.346;2023-05-23T08:51:13;96546.38;;;18.01;78.38
51123;BME280;37162;41.724;13.346;2023-05-23T08:53:41;96542.66;;;18.02;78.27
51123;BME280;37162;41.724;13.346;2023-05-23T08:56:11;96543.47;;;18.03;78.18
51123;BME280;37162;41.724;13.346;2023-05-23T08:58:38;96549.41;;;18.05;78.07
51123;BME280;37162;41.724;13.346;2023-05-23T09:01:06;96549.13;;;18.06;78.05
51123;BME280;37162;41.724;13.346;2023-05-23T09:03:34;96546.22;;;18.08;78.20
51123;BME280;37162;41.724;13.346;2023-05-23T09:06:05;96551.34;;;18.09;78.01
51123;BME280;37162;41.724;13.346;2023-05-23T09:08:32;96547.59;;;18.10;78.17
51123;BME280;37162;41.724;13.346;2023-05-23T09:10:57;96555.50;;;18.17;78.18
51123;BME280;37162;41.724;13.346;2023-05-23T09:13:23;96555.06;;;18.25;78.12
51123;BME280;37162;41.724;13.346;2023-05-23T09:16:02;96554.03;;;18.26;78.12
51123;BME280;37162;41.724;13.346;2023-05-23T09:18:41;96553.22;;;18.26;77.85
51123;BME280;37162;41.724;13.346;2023-05-23T09:21:07;96547.84;;;18.26;77.85
51123;BME280;37162;41.724;13.346;2023-05-23T09:23:34;96540.75;;;18.20;77.55
51123;BME280;37162;41.724;13.346;2023-05-23T09:26:02;96554.34;;;18.30;77.42
51123;BME280;37162;41.724;13.346;2023-05-23T09:28:28;96557.59;;;18.32;77.37
51123;BME280;37162;41.724;13.346;2023-05-23T09:30:57;96553.84;;;18.33;77.37
51123;BME280;37162;41.724;13.346;2023-05-23T09:33:28;96550.09;;;18.34;77.29
51123;BME280;37162;41.724;13.346;2023-05-23T09:35:54;96547.41;;;18.34;77.21
51123;BME280;37162;41.724;13.346;2023-05-23T09:38:19;96545.53;;;18.34;76.95
51123;BME280;37162;41.724;13.346;2023-05-23T09:40:45;96544.50;;;18.35;76.86
51123;BME280;37162;41.724;13.346;2023-05-23T09:43:11;96548.00;;;18.36;77.00
51123;BME280;37162;41.724;13.346;2023-05-23T09:45:41;96542.84;;;18.34;76.80
51123;BME280;37162;41.724;13.346;2023-05-23T09:48:10;96534.28;;;18.37;76.78
51123;BME280;37162;41.724;13.346;2023-05-23T09:50:36;96535.91;;;18.38;76.70
51123;BME280;37162;41.724;13.346;2023-05-23T09:53:02;96542.09;;;18.39;76.79
51123;BME280;37162;41.724;13.346;2023-05-23T09:55:27;96543.97;;;18.38;76.53
51123;BME280;37162;41.724;13.346;2023-05-23T09:57:53;96549.94;;;18.41;76.54
51123;BME280;37162;41.724;13.346;2023-05-23T10:00:22;96547.00;;;18.42;76.43
51123;BME280;37162;41.724;13.346;2023-05-23T10:03:07;96545.94;;;18.43;76.59
51123;BME280;37162;41.724;13.346;2023-05-23T10:05:46;96551.09;;;18.45;76.49
51123;BME280;37162;41.724;13.346;2023-05-23T10:08:26;96546.50;;;18.45;76.44
51123;BME280;37162;41.724;13.346;2023-05-23T10:11:08;96542.75;;;18.46;76.35
51123;BME280;37162;41.724;13.346;2023-05-23T10:13:45;96540.88;;;18.47;76.21
51123;BME280;37162;41.724;13.346;2023-05-23T10:16:18;96536.03;;;18.49;76.25
51123;BME280;37162;41.724;13.346;2023-05-23T10:18:44;96537.69;;;18.50;76.24
51123;BME280;37162;41.724;13.346;2023-05-23T10:21:18;96546.59;;;18.50;76.26
51123;BME280;37162;41.724;13.346;2023-05-23T10:23:46;96537.69;;;18.50;76.14
51123;BME280;37162;41.724;13.346;2023-05-23T10:26:12;96536.63;;;18.51;76.05
51123;BME280;37162;41.724;13.346;2023-05-23T10:28:39;96540.38;;;18.50;76.04
51123;BME280;37162;41.724;13.346;2023-05-23T10:31:06;96539.00;;;18.47;76.17
51123;BME280;37162;41.724;13.346;2023-05-23T10:33:34;96544.44;;;18.52;75.93
51123;BME280;37162;41.724;13.346;2023-05-23T10:36:13;96538.00;;;18.53;75.76
51123;BME280;37162;41.724;13.346;2023-05-23T10:38:45;96536.44;;;18.57;75.73
51123;BME280;37162;41.724;13.346;2023-05-23T10:41:22;96531.31;;;18.56;75.61
51123;BME280;37162;41.724;13.346;2023-05-23T10:44:09;96534.34;;;18.59;75.56
51123;BME280;37162;41.724;13.346;2023-05-23T10:47:02;96537.03;;;18.59;75.55
51123;BME280;37162;41.724;13.346;2023-05-23T10:49:41;96530.84;;;18.59;75.51
51123;BME280;37162;41.724;13.346;2023-05-23T10:52:09;96535.41;;;18.58;75.59
51123;BME280;37162;41.724;13.346;2023-05-23T10:54:36;96528.13;;;18.59;75.62
51123;BME280;37162;41.724;13.346;2023-05-23T10:57:03;96513.56;;;18.55;75.66
51123;BME280;37162;41.724;13.346;2023-05-23T10:59:29;96523.56;;;18.59;75.55
51123;BME280;37162;41.724;13.346;2023-05-23T11:01:54;96514.44;;;18.60;75.49
51123;BME280;37162;41.724;13.346;2023-05-23T11:04:27;96517.94;;;18.61;75.68
51123;BME280;37162;41.724;13.346;2023-05-23T11:06:54;96520.63;;;18.61;75.38
51123;BME280;37162;41.724;13.346;2023-05-23T11:09:20;96519.81;;;18.60;75.43
51123;BME280;37162;41.724;13.346;2023-05-23T11:14:14;96512.56;;;18.61;75.34
51123;BME280;37162;41.724;13.346;2023-05-23T11:16:42;96522.25;;;18.62;75.24
51123;BME280;37162;41.724;13.346;2023-05-23T11:19:21;96511.47;;;18.62;75.24
51123;BME280;37162;41.724;13.346;2023-05-23T11:21:52;96514.16;;;18.62;75.34
51123;BME280;37162;41.724;13.346;2023-05-23T11:24:18;96502.22;;;18.53;75.29
51123;BME280;37162;41.724;13.346;2023-05-23T11:26:56;96513.09;;;18.63;75.19
51123;BME280;37162;41.724;13.346;2023-05-23T11:29:25;96503.34;;;18.57;75.26
51123;BME280;37162;41.724;13.346;2023-05-23T11:31:51;96509.59;;;18.62;75.15
51123;BME280;37162;41.724;13.346;2023-05-23T11:34:17;96508.56;;;18.63;75.22
51123;BME280;37162;41.724;13.346;2023-05-23T11:36:43;96509.59;;;18.62;75.09
51123;BME280;37162;41.724;13.346;2023-05-23T11:39:08;96505.03;;;18.63;75.10
51123;BME280;37162;41.724;13.346;2023-05-23T11:41:34;96508.56;;;18.63;75.19
51123;BME280;37162;41.724;13.346;2023-05-23T11:44:00;96500.50;;;18.63;75.12
51123;BME280;37162;41.724;13.346;2023-05-23T11:46:26;96508.56;;;18.63;74.98
51123;BME280;37162;41.724;13.346;2023-05-23T11:48:52;96509.38;;;18.64;75.04
51123;BME280;37162;41.724;13.346;2023-05-23T11:51:18;96500.50;;;18.63;75.05
51123;BME280;37162;41.724;13.346;2023-05-23T11:53:46;96498.59;;;18.64;75.02
51123;BME280;37162;41.724;13.346;2023-05-23T11:56:14;96491.50;;;18.58;74.90
51123;BME280;37162;41.724;13.346;2023-05-23T11:58:39;96498.34;;;18.65;75.00
51123;BME280;37162;41.724;13.346;2023-05-23T12:01:12;96498.34;;;18.65;74.93
51123;BME280;37162;41.724;13.346;2023-05-23T12:03:44;96493.22;;;18.64;74.89
51123;BME280;37162;41.724;13.346;2023-05-23T12:06:17;96490.53;;;18.64;74.89
51123;BME280;37162;41.724;13.346;2023-05-23T12:08:43;96492.41;;;18.63;74.81
51123;BME280;37162;41.724;13.346;2023-05-23T12:11:09;96491.56;;;18.63;74.85
51123;BME280;37162;41.724;13.346;2023-05-23T12:13:36;96487.03;;;18.63;74.95
51123;BME280;37162;41.724;13.346;2023-05-23T12:16:02;96483.50;;;18.63;74.36
51123;BME280;37162;41.724;13.346;2023-05-23T12:18:32;96484.56;;;18.62;74.33
51123;BME280;37162;41.724;13.346;2023-05-23T12:21:01;96491.91;;;18.67;74.49
51123;BME280;37162;41.724;13.346;2023-05-23T12:23:28;96487.31;;;18.67;74.49
51123;BME280;37162;41.724;13.346;2023-05-23T12:25:55;96488.13;;;18.68;74.43
51123;BME280;37162;41.724;13.346;2023-05-23T12:28:32;96489.19;;;18.67;74.31
51123;BME280;37162;41.724;13.346;2023-05-23T12:30:58;96487.94;;;18.69;74.58
51123;BME280;37162;41.724;13.346;2023-05-23T12:33:24;96489.47;;;18.65;74.66
51123;BME280;37162;41.724;13.346;2023-05-23T12:35:49;96488.13;;;18.68;74.80
51123;BME280;37162;41.724;13.346;2023-05-23T12:38:15;96484.63;;;18.67;74.63
51123;BME280;37162;41.724;13.346;2023-05-23T12:40:41;96484.09;;;18.65;74.71
51123;BME280;37162;41.724;13.346;2023-05-23T12:43:08;96487.59;;;18.65;74.70
51123;BME280;37162;41.724;13.346;2023-05-23T12:45:35;96481.66;;;18.63;74.68
51123;BME280;37162;41.724;13.346;2023-05-23T12:48:01;96470.56;;;18.60;74.85
51123;BME280;37162;41.724;13.346;2023-05-23T12:50:28;96475.69;;;18.61;74.95
51123;BME280;37162;41.724;13.346;2023-05-23T12:52:53;96477.31;;;18.62;74.87